sensor_id;sensor_type;location;lat;lon;timestamp;pressure;altitude;pressure_sealevel;temperature;humidity
37200;BME280;23096;50.892;16.746;2023-04-04T00:01:02;100368.17;;;0.00;59.88
37200;BME280;23096;50.892;16.746;2023-04-04T00:03:27;100365.17;;;-0.04;59.96
37200;BME280;23096;50.892;16.746;2023-04-04T00:05:53;100362.65;;;-0.10;60.05
37200;BME280;23096;50.892;16.746;2023-04-04T00:08:19;100359.17;;;-0.13;60.11
37200;BME280;23096;50.892;16.746;2023-04-04T00:10:45;100354.63;;;-0.18;60.02
37200;BME280;23096;50.892;16.746;2023-04-04T00:13:10;100358.23;;;-0.23;60.18
37200;BME280;23096;50.892;16.746;2023-04-04T00:15:36;100354.63;;;-0.24;60.18
37200;BME280;23096;50.892;16.746;2023-04-04T00:18:02;100353.97;;;-0.30;60.15
37200;BME280;23096;50.892;16.746;2023-04-04T00:20:29;100353.85;;;-0.33;60.23
37200;BME280;23096;50.892;16.746;2023-04-04T00:22:55;100348.86;;;-0.37;60.19
37200;BME280;23096;50.892;16.746;2023-04-04T00:25:20;100347.04;;;-0.41;60.34
37200;BME280;23096;50.892;16.746;2023-04-04T00:27:47;100341.18;;;-0.45;60.45
37200;BME280;23096;50.892;16.746;2023-04-04T00:30:13;100340.92;;;-0.48;60.51
37200;BME280;23096;50.892;16.746;2023-04-04T00:32:40;100339.55;;;-0.48;60.49
37200;BME280;23096;50.892;16.746;2023-04-04T00:35:06;100337.39;;;-0.47;60.59
37200;BME280;23096;50.892;16.746;2023-04-04T00:37:32;100336.55;;;-0.47;60.59
37200;BME280;23096;50.892;16.746;2023-04-04T00:39:58;100335.43;;;-0.45;60.69
37200;BME280;23096;50.892;16.746;2023-04-04T00:42:24;100329.31;;;-0.47;60.75
37200;BME280;23096;50.892;16.746;2023-04-04T00:44:53;100330.41;;;-0.49;60.71
37200;BME280;23096;50.892;16.746;2023-04-04T00:47:21;100327.58;;;-0.48;60.72
37200;BME280;23096;50.892;16.746;2023-04-04T00:49:47;100327.52;;;-0.50;60.91
37200;BME280;23096;50.892;16.746;2023-04-04T00:52:13;100323.98;;;-0.50;60.76
37200;BME280;23096;50.892;16.746;2023-04-04T00:54:39;100317.91;;;-0.50;60.86
37200;BME280;23096;50.892;16.746;2023-04-04T00:57:06;100319.45;;;-0.48;60.79
37200;BME280;23096;50.892;16.746;2023-04-04T00:59:32;100314.42;;;-0.48;60.84
37200;BME280;23096;50.892;16.746;2023-04-04T01:01:59;100318.29;;;-0.48;60.97
37200;BME280;23096;50.892;16.746;2023-04-04T01:04:25;100319.62;;;-0.49;60.96
37200;BME280;23096;50.892;16.746;2023-04-04T01:06:54;100320.09;;;-0.50;60.98
37200;BME280;23096;50.892;16.746;2023-04-04T01:09:20;100323.64;;;-0.50;61.10
37200;BME280;23096;50.892;16.746;2023-04-04T01:11:48;100315.71;;;-0.50;61.02
37200;BME280;23096;50.892;16.746;2023-04-04T01:14:13;100315.45;;;-0.52;60.88
37200;BME280;23096;50.892;16.746;2023-04-04T01:16:40;100315.63;;;-0.58;60.95
37200;BME280;23096;50.892;16.746;2023-04-04T01:19:08;100310.98;;;-0.62;60.93
37200;BME280;23096;50.892;16.746;2023-04-04T01:21:36;100311.73;;;-0.65;61.03
37200;BME280;23096;50.892;16.746;2023-04-04T01:24:03;100306.40;;;-0.68;60.86
37200;BME280;23096;50.892;16.746;2023-04-04T01:26:37;100304.20;;;-0.68;61.03
37200;BME280;23096;50.892;16.746;2023-04-04T01:29:03;100304.70;;;-0.68;61.05
37200;BME280;23096;50.892;16.746;2023-04-04T01:31:35;100303.30;;;-0.70;61.12
37200;BME280;23096;50.892;16.746;2023-04-04T01:37:42;100300.00;;;-0.73;61.16
37200;BME280;23096;50.892;16.746;2023-04-04T01:40:17;100297.84;;;-0.72;61.15
37200;BME280;23096;50.892;16.746;2023-04-04T01:42:47;100296.51;;;-0.71;61.28
37200;BME280;23096;50.892;16.746;2023-04-04T01:45:14;100293.44;;;-0.72;61.11
37200;BME280;23096;50.892;16.746;2023-04-04T01:47:40;100292.55;;;-0.74;61.28
37200;BME280;23096;50.892;16.746;2023-04-04T01:50:10;100290.16;;;-0.75;61.19
37200;BME280;23096;50.892;16.746;2023-04-04T01:52:36;100291.05;;;-0.78;61.22
37200;BME280;23096;50.892;16.746;2023-04-04T01:55:02;100294.10;;;-0.78;61.19
37200;BME280;23096;50.892;16.746;2023-04-04T01:57:29;100293.55;;;-0.74;61.34
37200;BME280;23096;50.892;16.746;2023-04-04T01:59:55;100292.77;;;-0.72;61.27
37200;BME280;23096;50.892;16.746;2023-04-04T02:02:21;100285.50;;;-0.72;61.29
37200;BME280;23096;50.892;16.746;2023-04-04T02:04:47;100285.84;;;-0.72;61.35
37200;BME280;23096;50.892;16.746;2023-04-04T02:07:13;100287.68;;;-0.73;61.24
37200;BME280;23096;50.892;16.746;2023-04-04T02:09:39;100288.00;;;-0.73;61.33
37200;BME280;23096;50.892;16.746;2023-04-04T02:12:06;100286.14;;;-0.74;61.45
37200;BME280;23096;50.892;16.746;2023-04-04T02:14:32;100282.57;;;-0.74;61.32
37200;BME280;23096;50.892;16.746;2023-04-04T02:16:59;100277.83;;;-0.75;61.38
37200;BME280;23096;50.892;16.746;2023-04-04T02:19:25;100277.84;;;-0.74;61.40
37200;BME280;23096;50.892;16.746;2023-04-04T02:21:50;100279.05;;;-0.73;61.44
37200;BME280;23096;50.892;16.746;2023-04-04T02:24:16;100282.90;;;-0.75;61.41
37200;BME280;23096;50.892;16.746;2023-04-04T02:26:41;100277.34;;;-0.74;61.37
37200;BME280;23096;50.892;16.746;2023-04-04T02:29:07;100280.84;;;-0.76;61.39
37200;BME280;23096;50.892;16.746;2023-04-04T02:31:33;100285.17;;;-0.78;61.38
37200;BME280;23096;50.892;16.746;2023-04-04T02:33:59;100284.09;;;-0.80;61.32
37200;BME280;23096;50.892;16.746;2023-04-04T02:36:25;100286.14;;;-0.79;61.46
37200;BME280;23096;50.892;16.746;2023-04-04T02:38:52;100286.61;;;-0.80;61.38
37200;BME280;23096;50.892;16.746;2023-04-04T02:41:18;100289.74;;;-0.83;61.46
37200;BME280;23096;50.892;16.746;2023-04-04T02:43:44;100292.97;;;-0.82;61.50
37200;BME280;23096;50.892;16.746;2023-04-04T02:46:09;100294.20;;;-0.81;61.40
37200;BME280;23096;50.892;16.746;2023-04-04T02:48:35;100291.28;;;-0.82;61.37
37200;BME280;23096;50.892;16.746;2023-04-04T02:51:01;100291.11;;;-0.82;61.48
37200;BME280;23096;50.892;16.746;2023-04-04T02:53:27;100293.41;;;-0.84;61.39
37200;BME280;23096;50.892;16.746;2023-04-04T02:55:56;100292.65;;;-0.87;61.53
37200;BME280;23096;50.892;16.746;2023-04-04T02:58:22;100291.16;;;-0.86;61.53
37200;BME280;23096;50.892;16.746;2023-04-04T03:00:54;100289.11;;;-0.87;61.54
37200;BME280;23096;50.892;16.746;2023-04-04T03:03:21;100290.95;;;-0.87;61.61
37200;BME280;23096;50.892;16.746;2023-04-04T03:05:48;100292.01;;;-0.86;61.64
37200;BME280;23096;50.892;16.746;2023-04-04T03:08:14;100292.41;;;-0.84;61.61
37200;BME280;23096;50.892;16.746;2023-04-04T03:10:40;100294.35;;;-0.81;61.64
37200;BME280;23096;50.892;16.746;2023-04-04T03:13:06;100294.23;;;-0.79;61.64
37200;BME280;23096;50.892;16.746;2023-04-04T03:15:33;100293.69;;;-0.80;61.67
37200;BME280;23096;50.892;16.746;2023-04-04T03:17:59;100288.67;;;-0.85;61.60
37200;BME280;23096;50.892;16.746;2023-04-04T03:20:25;100286.23;;;-0.87;61.78
37200;BME280;23096;50.892;16.746;2023-04-04T03:22:51;100288.41;;;-0.88;61.75
37200;BME280;23096;50.892;16.746;2023-04-04T03:25:17;100284.18;;;-0.88;61.75
37200;BME280;23096;50.892;16.746;2023-04-04T03:27:42;100284.92;;;-0.86;61.86
37200;BME280;23096;50.892;16.746;2023-04-04T03:30:09;100280.37;;;-0.86;61.98
37200;BME280;23096;50.892;16.746;2023-04-04T03:32:35;100280.69;;;-0.86;61.94
37200;BME280;23096;50.892;16.746;2023-04-04T03:35:01;100270.74;;;-0.86;61.97
37200;BME280;23096;50.892;16.746;2023-04-04T03:37:28;100273.94;;;-0.81;62.11
37200;BME280;23096;50.892;16.746;2023-04-04T03:39:55;100277.70;;;-0.79;62.04
37200;BME280;23096;50.892;16.746;2023-04-04T03:42:21;100283.94;;;-0.80;62.08
37200;BME280;23096;50.892;16.746;2023-04-04T03:44:46;100288.61;;;-0.81;62.10
37200;BME280;23096;50.892;16.746;2023-04-04T03:47:18;100288.32;;;-0.79;62.11
37200;BME280;23096;50.892;16.746;2023-04-04T03:49:43;100286.20;;;-0.77;62.11
37200;BME280;23096;50.892;16.746;2023-04-04T03:52:10;100289.00;;;-0.79;62.12
37200;BME280;23096;50.892;16.746;2023-04-04T03:54:36;100288.90;;;-0.83;62.18
37200;BME280;23096;50.892;16.746;2023-04-04T03:57:02;100285.19;;;-0.83;62.27
37200;BME280;23096;50.892;16.746;2023-04-04T03:59:28;100285.29;;;-0.80;62.35
37200;BME280;23096;50.892;16.746;2023-04-04T04:01:54;100287.27;;;-0.81;62.33
37200;BME280;23096;50.892;16.746;2023-04-04T04:04:19;100284.85;;;-0.83;62.37
37200;BME280;23096;50.892;16.746;2023-04-04T04:06:45;100280.82;;;-0.82;62.35
37200;BME280;23096;50.892;16.746;2023-04-04T04:09:13;100282.21;;;-0.81;62.41
37200;BME280;23096;50.892;16.746;2023-04-04T04:11:39;100282.05;;;-0.80;62.47
37200;BME280;23096;50.892;16.746;2023-04-04T04:14:04;100283.44;;;-0.79;62.52
37200;BME280;23096;50.892;16.746;2023-04-04T04:16:30;100280.41;;;-0.79;62.59
37200;BME280;23096;50.892;16.746;2023-04-04T04:18:57;100285.78;;;-0.80;62.56
37200;BME280;23096;50.892;16.746;2023-04-04T04:21:31;100285.53;;;-0.83;62.63
37200;BME280;23096;50.892;16.746;2023-04-04T04:23:57;100285.80;;;-0.85;62.59
37200;BME280;23096;50.892;16.746;2023-04-04T04:26:22;100286.69;;;-0.89;62.65
37200;BME280;23096;50.892;16.746;2023-04-04T04:28:48;100285.34;;;-0.93;62.74
37200;BME280;23096;50.892;16.746;2023-04-04T04:31:16;100282.25;;;-0.96;62.68
37200;BME280;23096;50.892;16.746;2023-04-04T04:33:46;100280.89;;;-0.97;62.86
37200;BME280;23096;50.892;16.746;2023-04-04T04:36:13;100279.28;;;-1.00;62.85
37200;BME280;23096;50.892;16.746;2023-04-04T04:38:48;100282.04;;;-0.98;62.99
37200;BME280;23096;50.892;16.746;2023-04-04T04:41:14;100278.68;;;-0.97;63.05
37200;BME280;23096;50.892;16.746;2023-04-04T04:43:43;100283.13;;;-1.00;63.04
37200;BME280;23096;50.892;16.746;2023-04-04T04:46:09;100282.10;;;-1.01;63.17
37200;BME280;23096;50.892;16.746;2023-04-04T04:48:35;100281.25;;;-1.01;63.09
37200;BME280;23096;50.892;16.746;2023-04-04T04:51:00;100281.09;;;-1.06;63.22
37200;BME280;23096;50.892;16.746;2023-04-04T04:53:49;100286.33;;;-1.11;63.21
37200;BME280;23096;50.892;16.746;2023-04-04T04:56:15;100285.03;;;-1.15;63.27
37200;BME280;23096;50.892;16.746;2023-04-04T04:58:41;100292.20;;;-1.17;63.47
37200;BME280;23096;50.892;16.746;2023-04-04T05:01:09;100290.88;;;-1.22;63.38
37200;BME280;23096;50.892;16.746;2023-04-04T05:03:37;100291.03;;;-1.23;63.50
37200;BME280;23096;50.892;16.746;2023-04-04T05:06:05;100294.52;;;-1.24;63.62
37200;BME280;23096;50.892;16.746;2023-04-04T05:08:31;100288.27;;;-1.25;63.65
37200;BME280;23096;50.892;16.746;2023-04-04T05:11:09;100292.85;;;-1.24;63.75
37200;BME280;23096;50.892;16.746;2023-04-04T05:13:35;100293.52;;;-1.24;63.81
37200;BME280;23096;50.892;16.746;2023-04-04T05:16:01;100294.98;;;-1.25;63.91
37200;BME280;23096;50.892;16.746;2023-04-04T05:18:28;100297.98;;;-1.22;63.89
37200;BME280;23096;50.892;16.746;2023-04-04T05:20:55;100300.38;;;-1.20;63.94
37200;BME280;23096;50.892;16.746;2023-04-04T05:23:23;100301.08;;;-1.19;63.96
37200;BME280;23096;50.892;16.746;2023-04-04T05:25:50;100306.63;;;-1.15;64.00
37200;BME280;23096;50.892;16.746;2023-04-04T05:28:18;100299.45;;;-1.12;64.09
37200;BME280;23096;50.892;16.746;2023-04-04T05:30:45;100300.04;;;-1.14;64.01
37200;BME280;23096;50.892;16.746;2023-04-04T05:33:15;100305.49;;;-1.18;64.07
37200;BME280;23096;50.892;16.746;2023-04-04T05:35:44;100305.75;;;-1.21;64.11
37200;BME280;23096;50.892;16.746;2023-04-04T05:38:11;100308.23;;;-1.22;64.25
37200;BME280;23096;50.892;16.746;2023-04-04T05:40:37;100301.11;;;-1.18;64.15
37200;BME280;23096;50.892;16.746;2023-04-04T05:43:07;100302.52;;;-1.16;64.17
37200;BME280;23096;50.892;16.746;2023-04-04T05:45:40;100306.64;;;-1.19;64.22
37200;BME280;23096;50.892;16.746;2023-04-04T05:48:06;100302.11;;;-1.19;64.22
37200;BME280;23096;50.892;16.746;2023-04-04T05:50:35;100301.23;;;-1.14;64.36
37200;BME280;23096;50.892;16.746;2023-04-04T05:53:01;100305.90;;;-1.11;64.34
37200;BME280;23096;50.892;16.746;2023-04-04T05:55:29;100304.43;;;-1.09;64.48
37200;BME280;23096;50.892;16.746;2023-04-04T05:57:55;100309.84;;;-1.09;64.21
37200;BME280;23096;50.892;16.746;2023-04-04T06:00:29;100308.47;;;-1.10;64.24
37200;BME280;23096;50.892;16.746;2023-04-04T06:02:59;100303.77;;;-1.09;64.28
37200;BME280;23096;50.892;16.746;2023-04-04T06:05:25;100303.90;;;-1.05;64.32
37200;BME280;23096;50.892;16.746;2023-04-04T06:07:50;100298.60;;;-1.02;64.25
37200;BME280;23096;50.892;16.746;2023-04-04T06:10:16;100296.73;;;-1.02;64.23
37200;BME280;23096;50.892;16.746;2023-04-04T06:12:41;100296.27;;;-1.01;64.28
37200;BME280;23096;50.892;16.746;2023-04-04T06:15:09;100298.40;;;-0.97;64.22
37200;BME280;23096;50.892;16.746;2023-04-04T06:17:35;100298.00;;;-0.94;64.15
37200;BME280;23096;50.892;16.746;2023-04-04T06:20:01;100300.45;;;-0.91;64.16
37200;BME280;23096;50.892;16.746;2023-04-04T06:22:26;100296.28;;;-0.90;64.17
37200;BME280;23096;50.892;16.746;2023-04-04T06:24:53;100297.58;;;-0.91;64.04
37200;BME280;23096;50.892;16.746;2023-04-04T06:27:19;100299.66;;;-0.89;64.09
37200;BME280;23096;50.892;16.746;2023-04-04T06:29:45;100304.07;;;-0.89;64.04
37200;BME280;23096;50.892;16.746;2023-04-04T06:32:15;100306.14;;;-0.87;64.02
37200;BME280;23096;50.892;16.746;2023-04-04T06:34:42;100302.63;;;-0.86;63.99
37200;BME280;23096;50.892;16.746;2023-04-04T06:37:09;100305.92;;;-0.83;63.94
37200;BME280;23096;50.892;16.746;2023-04-04T06:39:41;100300.84;;;-0.78;63.97
37200;BME280;23096;50.892;16.746;2023-04-04T06:42:13;100295.90;;;-0.75;63.82
37200;BME280;23096;50.892;16.746;2023-04-04T06:44:45;100292.79;;;-0.71;63.83
37200;BME280;23096;50.892;16.746;2023-04-04T06:47:11;100287.32;;;-0.74;63.56
37200;BME280;23096;50.892;16.746;2023-04-04T06:49:36;100287.29;;;-0.75;63.70
37200;BME280;23096;50.892;16.746;2023-04-04T06:52:03;100288.80;;;-0.69;63.75
37200;BME280;23096;50.892;16.746;2023-04-04T06:54:29;100287.66;;;-0.63;63.63
37200;BME280;23096;50.892;16.746;2023-04-04T06:56:55;100294.42;;;-0.62;63.55
37200;BME280;23096;50.892;16.746;2023-04-04T06:59:21;100293.43;;;-0.62;63.43
37200;BME280;23096;50.892;16.746;2023-04-04T07:01:47;100291.95;;;-0.61;63.42
37200;BME280;23096;50.892;16.746;2023-04-04T07:04:12;100291.39;;;-0.56;63.35
37200;BME280;23096;50.892;16.746;2023-04-04T07:06:38;100293.74;;;-0.56;63.29
37200;BME280;23096;50.892;16.746;2023-04-04T07:09:03;100298.04;;;-0.60;63.00
37200;BME280;23096;50.892;16.746;2023-04-04T07:11:34;100299.90;;;-0.60;62.90
37200;BME280;23096;50.892;16.746;2023-04-04T07:14:00;100297.34;;;-0.60;62.95
37200;BME280;23096;50.892;16.746;2023-04-04T07:16:26;100296.10;;;-0.56;62.76
37200;BME280;23096;50.892;16.746;2023-04-04T07:18:52;100298.96;;;-0.51;62.73
37200;BME280;23096;50.892;16.746;2023-04-04T07:21:17;100292.00;;;-0.47;62.62
37200;BME280;23096;50.892;16.746;2023-04-04T07:23:45;100290.37;;;-0.45;62.46
37200;BME280;23096;50.892;16.746;2023-04-04T07:26:10;100295.67;;;-0.48;62.40
37200;BME280;23096;50.892;16.746;2023-04-04T07:28:36;100297.94;;;-0.46;62.37
37200;BME280;23096;50.892;16.746;2023-04-04T07:31:01;100299.27;;;-0.41;62.16
37200;BME280;23096;50.892;16.746;2023-04-04T07:33:27;100297.58;;;-0.41;62.06
37200;BME280;23096;50.892;16.746;2023-04-04T07:35:53;100296.32;;;-0.43;61.79
37200;BME280;23096;50.892;16.746;2023-04-04T07:38:19;100295.35;;;-0.42;61.87
37200;BME280;23096;50.892;16.746;2023-04-04T07:40:44;100301.45;;;-0.35;61.89
37200;BME280;23096;50.892;16.746;2023-04-04T07:43:12;100298.10;;;-0.34;61.60
37200;BME280;23096;50.892;16.746;2023-04-04T07:45:37;100299.75;;;-0.35;61.42
37200;BME280;23096;50.892;16.746;2023-04-04T07:48:03;100292.73;;;-0.34;61.41
37200;BME280;23096;50.892;16.746;2023-04-04T07:50:29;100295.23;;;-0.34;61.30
37200;BME280;23096;50.892;16.746;2023-04-04T07:52:54;100292.42;;;-0.38;61.10
37200;BME280;23096;50.892;16.746;2023-04-04T07:55:23;100290.97;;;-0.42;61.00
37200;BME280;23096;50.892;16.746;2023-04-04T07:57:52;100289.41;;;-0.37;61.03
37200;BME280;23096;50.892;16.746;2023-04-04T08:00:19;100292.94;;;-0.37;60.77
37200;BME280;23096;50.892;16.746;2023-04-04T08:02:52;100296.14;;;-0.32;60.75
37200;BME280;23096;50.892;16.746;2023-04-04T08:05:18;100292.66;;;-0.24;60.65
37200;BME280;23096;50.892;16.746;2023-04-04T08:07:43;100293.17;;;-0.24;60.55
37200;BME280;23096;50.892;16.746;2023-04-04T08:10:09;100290.40;;;-0.26;60.44
37200;BME280;23096;50.892;16.746;2023-04-04T08:12:36;100293.09;;;-0.27;60.31
37200;BME280;23096;50.892;16.746;2023-04-04T08:15:01;100286.91;;;-0.24;60.22
37200;BME280;23096;50.892;16.746;2023-04-04T08:17:27;100290.10;;;-0.19;60.14
37200;BME280;23096;50.892;16.746;2023-04-04T08:19:53;100284.98;;;-0.14;60.00
37200;BME280;23096;50.892;16.746;2023-04-04T08:22:18;100284.59;;;-0.11;60.00
37200;BME280;23096;50.892;16.746;2023-04-04T08:24:44;100283.94;;;-0.04;59.83
37200;BME280;23096;50.892;16.746;2023-04-04T08:27:10;100281.66;;;-0.00;59.75
37200;BME280;23096;50.892;16.746;2023-04-04T08:29:36;100283.27;;;0.02;59.53
37200;BME280;23096;50.892;16.746;2023-04-04T08:32:02;100282.05;;;0.08;59.54
37200;BME280;23096;50.892;16.746;2023-04-04T08:34:28;100286.48;;;0.09;59.41
37200;BME280;23096;50.892;16.746;2023-04-04T08:36:54;100280.18;;;0.08;59.26
37200;BME280;23096;50.892;16.746;2023-04-04T08:39:20;100279.65;;;0.07;59.09
37200;BME280;23096;50.892;16.746;2023-04-04T08:41:45;100276.46;;;0.07;59.04
37200;BME280;23096;50.892;16.746;2023-04-04T08:44:19;100276.16;;;0.15;59.16
37200;BME280;23096;50.892;16.746;2023-04-04T08:46:48;100279.29;;;0.18;58.95
37200;BME280;23096;50.892;16.746;2023-04-04T08:49:15;100272.77;;;0.15;58.66
37200;BME280;23096;50.892;16.746;2023-04-04T08:51:46;100268.52;;;0.08;58.68
37200;BME280;23096;50.892;16.746;2023-04-04T08:54:13;100267.13;;;-0.00;58.56
37200;BME280;23096;50.892;16.746;2023-04-04T08:56:41;100270.04;;;-0.05;58.54
37200;BME280;23096;50.892;16.746;2023-04-04T08:59:06;100270.27;;;-0.03;58.49
37200;BME280;23096;50.892;16.746;2023-04-04T09:01:33;100275.29;;;0.01;58.41
37200;BME280;23096;50.892;16.746;2023-04-04T09:03:59;100273.65;;;0.04;58.49
37200;BME280;23096;50.892;16.746;2023-04-04T09:06:25;100269.99;;;0.12;58.51
37200;BME280;23096;50.892;16.746;2023-04-04T09:08:52;100270.19;;;0.13;58.40
37200;BME280;23096;50.892;16.746;2023-04-04T09:11:19;100271.90;;;0.14;58.44
37200;BME280;23096;50.892;16.746;2023-04-04T09:13:48;100271.56;;;0.20;58.17
37200;BME280;23096;50.892;16.746;2023-04-04T09:16:15;100267.65;;;0.26;58.18
37200;BME280;23096;50.892;16.746;2023-04-04T09:18:42;100265.09;;;0.31;58.17
37200;BME280;23096;50.892;16.746;2023-04-04T09:21:09;100260.58;;;0.34;58.04
37200;BME280;23096;50.892;16.746;2023-04-04T09:23:36;100261.92;;;0.33;57.75
37200;BME280;23096;50.892;16.746;2023-04-04T09:26:02;100265.90;;;0.30;57.67
37200;BME280;23096;50.892;16.746;2023-04-04T09:28:28;100270.56;;;0.27;57.64
37200;BME280;23096;50.892;16.746;2023-04-04T09:30:53;100272.64;;;0.23;57.51
37200;BME280;23096;50.892;16.746;2023-04-04T09:33:20;100273.13;;;0.22;57.54
37200;BME280;23096;50.892;16.746;2023-04-04T09:36:06;100269.84;;;0.19;57.33
37200;BME280;23096;50.892;16.746;2023-04-04T09:38:38;100275.58;;;0.25;57.44
37200;BME280;23096;50.892;16.746;2023-04-04T09:41:07;100275.77;;;0.33;57.44
37200;BME280;23096;50.892;16.746;2023-04-04T09:43:38;100273.64;;;0.42;57.22
37200;BME280;23096;50.892;16.746;2023-04-04T09:46:04;100273.82;;;0.42;57.21
37200;BME280;23096;50.892;16.746;2023-04-04T09:48:32;100274.16;;;0.49;57.09
37200;BME280;23096;50.892;16.746;2023-04-04T09:50:59;100273.14;;;0.48;56.87
37200;BME280;23096;50.892;16.746;2023-04-04T09:53:25;100270.61;;;0.43;56.70
37200;BME280;23096;50.892;16.746;2023-04-04T09:55:55;100269.85;;;0.46;56.97
37200;BME280;23096;50.892;16.746;2023-04-04T09:58:26;100268.83;;;0.52;56.96
37200;BME280;23096;50.892;16.746;2023-04-04T10:00:55;100267.52;;;0.61;56.86
37200;BME280;23096;50.892;16.746;2023-04-04T10:03:23;100267.43;;;0.57;56.63
37200;BME280;23096;50.892;16.746;2023-04-04T10:05:58;100273.80;;;0.54;56.60
37200;BME280;23096;50.892;16.746;2023-04-04T10:08:26;100267.42;;;0.56;56.55
37200;BME280;23096;50.892;16.746;2023-04-04T10:10:57;100265.58;;;0.64;56.66
37200;BME280;23096;50.892;16.746;2023-04-04T10:13:30;100268.08;;;0.63;56.38
37200;BME280;23096;50.892;16.746;2023-04-04T10:16:00;100264.45;;;0.60;56.48
37200;BME280;23096;50.892;16.746;2023-04-04T10:18:31;100264.79;;;0.60;56.44
37200;BME280;23096;50.892;16.746;2023-04-04T10:20:58;100259.89;;;0.60;56.27
37200;BME280;23096;50.892;16.746;2023-04-04T10:23:25;100256.49;;;0.60;56.25
37200;BME280;23096;50.892;16.746;2023-04-04T10:25:53;100253.41;;;0.65;56.33
37200;BME280;23096;50.892;16.746;2023-04-04T10:28:19;100251.82;;;0.69;56.28
37200;BME280;23096;50.892;16.746;2023-04-04T10:30:49;100257.95;;;0.70;56.10
37200;BME280;23096;50.892;16.746;2023-04-04T10:36:08;100257.01;;;0.80;56.22
37200;BME280;23096;50.892;16.746;2023-04-04T10:38:41;100254.90;;;0.78;56.10
37200;BME280;23096;50.892;16.746;2023-04-04T10:41:09;100253.66;;;0.75;56.03
37200;BME280;23096;50.892;16.746;2023-04-04T10:43:39;100254.02;;;0.76;56.09
37200;BME280;23096;50.892;16.746;2023-04-04T10:46:14;100249.51;;;0.78;55.92
37200;BME280;23096;50.892;16.746;2023-04-04T10:48:40;100251.77;;;0.81;56.01
37200;BME280;23096;50.892;16.746;2023-04-04T10:51:06;100250.91;;;0.88;56.05
37200;BME280;23096;50.892;16.746;2023-04-04T10:53:34;100252.95;;;0.96;55.98
37200;BME280;23096;50.892;16.746;2023-04-04T10:56:00;100253.80;;;0.95;55.73
37200;BME280;23096;50.892;16.746;2023-04-04T10:58:27;100248.09;;;0.90;55.71
37200;BME280;23096;50.892;16.746;2023-04-04T11:00:54;100247.97;;;0.85;55.55
37200;BME280;23096;50.892;16.746;2023-04-04T11:03:20;100247.77;;;0.84;55.63
37200;BME280;23096;50.892;16.746;2023-04-04T11:05:46;100248.36;;;0.80;55.51
37200;BME280;23096;50.892;16.746;2023-04-04T11:08:17;100246.88;;;0.74;55.56
37200;BME280;23096;50.892;16.746;2023-04-04T11:10:49;100239.63;;;0.75;55.59
37200;BME280;23096;50.892;16.746;2023-04-04T11:15:52;100235.29;;;0.85;55.44
37200;BME280;23096;50.892;16.746;2023-04-04T11:18:19;100230.91;;;0.79;55.37
37200;BME280;23096;50.892;16.746;2023-04-04T11:20:46;100227.83;;;0.77;55.40
37200;BME280;23096;50.892;16.746;2023-04-04T11:23:16;100223.17;;;0.80;55.24
37200;BME280;23096;50.892;16.746;2023-04-04T11:39:30;100221.55;;;1.22;55.01
37200;BME280;23096;50.892;16.746;2023-04-04T11:42:12;100219.75;;;1.25;54.83
37200;BME280;23096;50.892;16.746;2023-04-04T11:47:20;100215.44;;;1.05;54.82
37200;BME280;23096;50.892;16.746;2023-04-04T11:49:48;100219.73;;;1.00;54.89
37200;BME280;23096;50.892;16.746;2023-04-04T11:52:15;100221.66;;;0.96;54.86
37200;BME280;23096;50.892;16.746;2023-04-04T11:54:45;100221.84;;;0.88;54.77
37200;BME280;23096;50.892;16.746;2023-04-04T11:57:15;100219.59;;;0.86;54.86
37200;BME280;23096;50.892;16.746;2023-04-04T11:59:43;100214.42;;;0.90;55.00
37200;BME280;23096;50.892;16.746;2023-04-04T12:02:10;100216.21;;;0.95;55.11
37200;BME280;23096;50.892;16.746;2023-04-04T12:04:37;100215.46;;;0.99;55.08
37200;BME280;23096;50.892;16.746;2023-04-04T12:07:05;100216.81;;;0.99;54.96
37200;BME280;23096;50.892;16.746;2023-04-04T12:09:32;100218.23;;;0.94;54.94
37200;BME280;23096;50.892;16.746;2023-04-04T12:11:59;100212.93;;;0.92;54.84
37200;BME280;23096;50.892;16.746;2023-04-04T12:14:24;100208.32;;;0.90;54.83
37200;BME280;23096;50.892;16.746;2023-04-04T12:16:55;100208.41;;;0.86;54.79
37200;BME280;23096;50.892;16.746;2023-04-04T12:19:26;100209.80;;;0.87;54.87
37200;BME280;23096;50.892;16.746;2023-04-04T12:21:53;100212.16;;;0.87;55.04
37200;BME280;23096;50.892;16.746;2023-04-04T12:24:19;100208.04;;;0.84;55.01
37200;BME280;23096;50.892;16.746;2023-04-04T12:26:47;100205.95;;;0.82;55.02
37200;BME280;23096;50.892;16.746;2023-04-04T12:29:15;100201.61;;;0.85;55.19
37200;BME280;23096;50.892;16.746;2023-04-04T12:31:43;100200.95;;;0.93;55.34
37200;BME280;23096;50.892;16.746;2023-04-04T12:34:23;100199.46;;;1.02;55.48
37200;BME280;23096;50.892;16.746;2023-04-04T12:36:54;100198.30;;;1.03;55.29
37200;BME280;23096;50.892;16.746;2023-04-04T12:39:22;100199.52;;;1.05;55.24
37200;BME280;23096;50.892;16.746;2023-04-04T12:42:01;100198.86;;;1.06;55.17
37200;BME280;23096;50.892;16.746;2023-04-04T12:44:28;100198.77;;;1.02;55.03
37200;BME280;23096;50.892;16.746;2023-04-04T12:47:02;100197.36;;;0.99;55.13
37200;BME280;23096;50.892;16.746;2023-04-04T12:49:31;100201.91;;;0.98;55.13
37200;BME280;23096;50.892;16.746;2023-04-04T12:51:57;100198.17;;;0.97;55.11
37200;BME280;23096;50.892;16.746;2023-04-04T12:54:30;100199.54;;;0.97;55.27
37200;BME280;23096;50.892;16.746;2023-04-04T12:56:57;100200.40;;;0.99;55.31
37200;BME280;23096;50.892;16.746;2023-04-04T12:59:31;100196.48;;;0.98;55.35
37200;BME280;23096;50.892;16.746;2023-04-04T13:01:59;100195.44;;;0.97;55.13
37200;BME280;23096;50.892;16.746;2023-04-04T13:04:27;100194.06;;;0.95;55.20
37200;BME280;23096;50.892;16.746;2023-04-04T13:06:52;100196.83;;;0.98;55.22
37200;BME280;23096;50.892;16.746;2023-04-04T13:09:20;100196.55;;;1.01;55.23